Terminal Aerodrome Forecast
Issued by NWS

Home | Current Version | Previous Version | Text Only | Print | Product List | Glossary On
Versions: 1 2 3 4 5 6 7 8 9 10 11 12 13 14 15 16 17 18 19 20 21 22 23 24 25 26 27 28 29
000
FTUS42 KMFL 260558 CCB
TAFFXE
TAF COR
KFXE 260558Z 2606/2706 13004KT P6SM VCTS SCT020CB SCT250
      TEMPO 2606/2607 5SM -TSRA FEW025 BKN030CB BKN080
     FM261400 11010KT P6SM VCSH SCT025 SCT050 SCT250
     FM262000 12013KT P6SM SCT025 SCT250
     FM270200 12007KT P6SM FEW030 FEW250=

USA.gov is the U.S. government's official web portal to all federal, state and local government web resources and services.